• pl
  • eng

Awiacja
Kliknij na pogrubioną czerwoną nazwę, aby odkodować depeszę. 19:01 17.08.2019
  • WIND
  • SIGNIFICANT EURO
  • SIGNIFICANT
  • SIGMET
  • AIRMET
  • TAF FC
  • TAF FT
  • METAR GG30
  • METAR GG00


METAR EPBY 171700Z 19006KT 170V230 CAVOK 24/08 Q1012 =

METAR EPGD 171700Z 17006KT CAVOK 21/10 Q1012 =

METAR EPKK 171700Z 19002KT CAVOK 23/14 Q1015 =

METAR EPKT 171700Z 20006KT 170V240 CAVOK 23/10 Q1014 =

METAR EPLB 171700Z VRB01KT CAVOK 21/16 Q1014 =

METAR EPLL 171700Z 20005KT 170V230 CAVOK 23/10 Q1013 =

METAR EPMO 171700Z 19004KT CAVOK 24/12 Q1013 =

METAR EPPO 171700Z 17008KT CAVOK 25/09 Q1011 =

METAR EPRA 171700Z NIL=

METAR EPRZ 171700Z 16003KT CAVOK 23/13 Q1015 =

METAR EPSC 171700Z 13009KT CAVOK 23/12 Q1008 =

METAR EPSY 171700Z 18003KT CAVOK 23/13 Q1013=

METAR EPWA 171700Z 19004KT CAVOK 23/13 Q1013 NOSIG=

METAR EPWR 171700Z 22008KT 180V240 CAVOK 24/10 Q1013 =

METAR EPZG 171700Z 18011KT 140V210 CAVOK 25/10 Q1011 =
 METAR EPSY
Lokalizacja:EPSY
Czas:17:00 UTC
Średni kierunek wiatru:180 °
Średnia prędkość wiatru:3 węzłów
CAVOK:Widzialność 10 km i więcej, zjawisko: NIL, zachmurzenie: NSC
Temperatura powietrza:23 °C
Temperatura punktu rosy:13 °C
Ciśnienie QNH:1013 hPa
Awiacja.imgw.pl jest pogodowym serwisem informacyjnym
Instytutu Meteorologii i Gospodarki Wodnej Państwowego Instytutu Badawczego.
Copyright IMGW PIB 2009-2011© Wszelkie prawa zastrzeżone.